Time;durP1;ratioP1;P1;durP2;ratioP2;P2;SDS_P1;SDS_P2;PMS_P1;PMS_P2;Temp;Humidity;BMP_temperature;BMP_pressure;BME280_temperature;BME280_humidity;BME280_pressure;Samples;Min_cycle;Max_cycle;Signal;HPM_P1;HPM_P2
2021/06/23 00:02:00;;;;;;;6.50;5.00;;;;;;;11.79;100.00;101057.66;5037549;28;20047;-81
2021/06/23 00:04:27;;;;;;;4.93;4.35;;;;;;;11.87;100.00;101060.19;5044381;28;20497;-81
2021/06/23 00:06:53;;;;;;;5.38;4.70;;;;;;;11.86;100.00;101063.75;5034119;28;20053;-81
2021/06/23 00:09:20;;;;;;;5.85;4.95;;;;;;;11.86;100.00;101066.41;5056758;28;20063;-82
2021/06/23 00:11:50;;;;;;;8.05;5.35;;;;;;;11.76;100.00;101063.00;5056084;28;20053;-81
2021/06/23 00:14:17;;;;;;;5.68;4.22;;;;;;;11.76;100.00;101074.44;5049585;28;20394;-81
2021/06/23 00:16:44;;;;;;;5.65;5.07;;;;;;;11.86;100.00;101080.50;5036816;28;20115;-81
2021/06/23 00:19:11;;;;;;;6.07;4.32;;;;;;;11.93;100.00;101070.63;5035503;28;20452;-81
2021/06/23 00:21:38;;;;;;;5.63;4.70;;;;;;;12.02;97.81;101049.28;5030074;28;20041;-80
2021/06/23 00:24:05;;;;;;;6.70;5.30;;;;;;;11.96;98.92;101045.00;5054215;28;20052;-80
2021/06/23 00:26:33;;;;;;;5.50;4.53;;;;;;;11.86;99.23;101031.97;5065969;28;20457;-80
2021/06/23 00:29:00;;;;;;;5.32;4.25;;;;;;;11.83;98.17;101038.19;5049805;28;20051;-80
2021/06/23 00:31:28;;;;;;;5.78;5.15;;;;;;;11.73;99.87;101037.47;5054480;28;20422;-80
2021/06/23 00:33:56;;;;;;;4.93;4.43;;;;;;;11.58;100.00;101048.31;5046818;28;20425;-80
2021/06/23 00:36:23;;;;;;;6.72;5.30;;;;;;;11.58;100.00;101064.19;5043489;28;20064;-80
2021/06/23 00:38:50;;;;;;;6.50;5.45;;;;;;;11.64;100.00;101063.22;5048940;28;20052;-80
2021/06/23 00:41:19;;;;;;;5.47;4.53;;;;;;;11.69;99.97;101056.09;5050189;28;20045;-80
2021/06/23 00:43:46;;;;;;;6.43;4.93;;;;;;;11.68;99.48;101044.59;5048407;28;20041;-80
2021/06/23 00:46:14;;;;;;;5.22;4.63;;;;;;;11.60;100.00;101046.53;5024808;28;20036;-81
2021/06/23 00:48:57;;;;;;;6.53;4.60;;;;;;;11.56;100.00;101044.84;5068908;28;20069;-80
2021/06/23 00:51:24;;;;;;;5.93;5.03;;;;;;;11.53;99.97;101047.56;5050768;28;20040;-81
2021/06/23 00:53:51;;;;;;;5.35;4.50;;;;;;;11.49;99.91;101037.91;5035534;28;20489;-81
2021/06/23 00:56:18;;;;;;;6.55;5.43;;;;;;;11.47;100.00;101045.00;5052859;28;20041;-80
2021/06/23 00:58:48;;;;;;;6.25;5.10;;;;;;;11.42;99.53;101026.56;5038743;28;20071;-81
2021/06/23 01:01:15;;;;;;;7.32;4.97;;;;;;;11.30;98.48;101032.09;5037532;28;20045;-81
2021/06/23 01:03:42;;;;;;;6.20;5.22;;;;;;;11.26;100.00;101033.88;5067387;28;20490;-80
2021/06/23 01:06:09;;;;;;;6.13;5.00;;;;;;;11.19;100.00;101036.69;5052800;28;20447;-81
2021/06/23 01:08:36;;;;;;;7.00;5.00;;;;;;;11.17;100.00;101036.69;5059416;28;20048;-81
2021/06/23 01:11:07;;;;;;;5.53;4.90;;;;;;;11.21;99.58;101048.97;5048784;28;20045;-81
2021/06/23 01:13:36;;;;;;;6.90;4.60;;;;;;;11.14;100.00;101049.97;5069202;28;20494;-80
2021/06/23 01:16:06;;;;;;;6.47;5.10;;;;;;;11.12;100.00;101051.78;5041230;28;20052;-81
2021/06/23 01:18:34;;;;;;;5.45;4.80;;;;;;;11.15;100.00;101049.09;5036493;28;20048;-81
2021/06/23 01:21:01;;;;;;;6.35;4.82;;;;;;;11.16;99.79;101056.13;5057063;28;20028;-80
2021/06/23 01:23:27;;;;;;;7.50;5.43;;;;;;;11.10;100.00;101065.91;5045263;28;20114;-81
2021/06/23 01:25:54;;;;;;;6.38;5.18;;;;;;;11.08;100.00;101073.00;5037855;28;20058;-80
2021/06/23 01:28:21;;;;;;;7.45;5.07;;;;;;;11.05;100.00;101081.88;5055514;28;20037;-81
2021/06/23 01:30:47;;;;;;;6.20;4.82;;;;;;;11.06;100.00;101083.59;5034255;28;20037;-82
2021/06/23 01:33:14;;;;;;;9.52;4.97;;;;;;;11.05;100.00;101084.50;5051093;28;20079;-81
2021/06/23 01:35:45;;;;;;;7.15;5.25;;;;;;;11.03;100.00;101094.25;5052432;28;20119;-81
2021/06/23 01:38:11;;;;;;;6.65;5.20;;;;;;;10.97;100.00;101086.41;5049641;28;20052;-80
2021/06/23 01:40:38;;;;;;;5.90;4.93;;;;;;;10.98;99.93;101094.31;5068799;28;20033;-80
2021/06/23 01:43:08;;;;;;;5.43;4.70;;;;;;;10.97;100.00;101089.03;5040772;28;20537;-80
2021/06/23 01:45:36;;;;;;;6.13;5.25;;;;;;;10.94;100.00;101095.25;5059450;28;20036;-80
2021/06/23 01:48:02;;;;;;;5.57;5.07;;;;;;;10.98;100.00;101096.94;5046708;28;20052;-80
2021/06/23 01:50:29;;;;;;;6.78;5.35;;;;;;;10.97;100.00;101091.69;5034323;28;20608;-81
2021/06/23 01:52:56;;;;;;;7.00;5.18;;;;;;;10.88;100.00;101094.47;5052007;28;20087;-80
2021/06/23 01:55:30;;;;;;;6.55;5.50;;;;;;;10.77;100.00;101099.03;5062485;28;20044;-81
2021/06/23 01:58:05;;;;;;;6.68;5.97;;;;;;;10.77;100.00;101099.91;5061058;28;20045;-81
2021/06/23 02:00:46;;;;;;;6.60;5.03;;;;;;;10.75;100.00;101096.41;5033284;28;20106;-80
2021/06/23 02:03:19;;;;;;;6.15;5.20;;;;;;;10.71;100.00;101100.00;5057589;28;20075;-81
2021/06/23 02:05:59;;;;;;;8.18;5.30;;;;;;;10.60;100.00;101118.66;5052893;28;20045;-80
2021/06/23 02:08:49;;;;;;;8.13;5.53;;;;;;;10.63;100.00;101163.50;5046906;28;20040;-80
2021/06/23 02:11:32;;;;;;;6.40;4.78;;;;;;;10.73;100.00;101148.41;5047279;28;20098;-80
2021/06/23 02:14:27;;;;;;;6.60;5.28;;;;;;;10.86;100.00;101128.84;5059648;28;20036;-80
2021/06/23 02:16:56;;;;;;;6.03;5.15;;;;;;;10.83;100.00;101122.72;5046227;28;20152;-81
2021/06/23 02:19:23;;;;;;;6.13;5.20;;;;;;;10.70;100.00;101120.25;5060944;28;20037;-81
2021/06/23 02:21:49;;;;;;;7.10;5.40;;;;;;;10.61;100.00;101115.09;5021418;28;20494;-80
2021/06/23 02:24:16;;;;;;;7.18;5.28;;;;;;;10.63;100.00;101126.53;5036681;28;20052;-81
2021/06/23 02:26:43;;;;;;;6.07;5.45;;;;;;;10.61;100.00;101125.69;5017314;28;20045;-80
2021/06/23 02:29:10;;;;;;;6.88;5.80;;;;;;;10.54;100.00;101129.28;5037156;28;20135;-80
2021/06/23 02:31:38;;;;;;;5.40;4.40;;;;;;;10.52;100.00;101131.09;5042281;28;20044;-80
2021/06/23 02:34:07;;;;;;;7.18;5.30;;;;;;;10.51;100.00;101146.94;5055477;28;20098;-80
2021/06/23 02:36:34;;;;;;;6.93;4.60;;;;;;;10.48;100.00;101155.78;5053895;28;20744;-81
2021/06/23 02:39:03;;;;;;;5.97;5.05;;;;;;;10.45;100.00;101155.81;5036257;28;20098;-79
2021/06/23 02:41:30;;;;;;;7.28;5.25;;;;;;;10.47;100.00;101148.75;5051878;28;20037;-80
2021/06/23 02:44:02;;;;;;;5.40;4.85;;;;;;;10.46;100.00;101149.63;5035645;28;20036;-79
2021/06/23 02:46:29;;;;;;;5.93;5.32;;;;;;;10.41;100.00;101164.66;5049480;28;20044;-80
2021/06/23 02:48:58;;;;;;;5.68;5.07;;;;;;;10.38;100.00;101164.72;5066159;28;20028;-80
2021/06/23 02:51:25;;;;;;;5.35;4.82;;;;;;;10.38;100.00;101172.63;5051340;28;20041;-80
2021/06/23 02:53:56;;;;;;;7.93;5.00;;;;;;;10.43;100.00;101168.19;5050539;28;20045;-80
2021/06/23 02:56:23;;;;;;;8.85;5.68;;;;;;;10.41;100.00;101165.53;5032611;28;20106;-80
2021/06/23 02:58:50;;;;;;;7.50;5.07;;;;;;;10.41;100.00;101160.25;5064532;28;20090;-80
2021/06/23 03:01:17;;;;;;;7.50;5.65;;;;;;;10.41;100.00;101160.25;5049821;28;20037;-80
2021/06/23 03:03:45;;;;;;;7.22;5.68;;;;;;;10.39;100.00;101156.75;5043255;28;20046;-80
2021/06/23 03:06:11;;;;;;;5.28;4.78;;;;;;;10.47;100.00;101154.03;5036338;28;20049;-80
2021/06/23 03:08:38;;;;;;;5.78;4.88;;;;;;;10.44;100.00;101154.06;5051747;28;20091;-80
2021/06/23 03:11:05;;;;;;;5.68;5.07;;;;;;;10.41;100.00;101154.09;5035172;28;20089;-81
2021/06/23 03:13:32;;;;;;;8.73;5.30;;;;;;;10.41;100.00;101152.31;5067955;28;20040;-81
2021/06/23 03:15:59;;;;;;;7.70;6.05;;;;;;;10.47;100.00;101154.03;5056711;28;20527;-80
2021/06/23 03:18:29;;;;;;;5.93;5.35;;;;;;;10.53;100.00;101156.59;5053667;28;20048;-81
2021/06/23 03:20:55;;;;;;;6.55;5.30;;;;;;;10.55;100.00;101149.53;5046376;28;20041;-81
2021/06/23 03:23:22;;;;;;;6.10;5.50;;;;;;;10.55;100.00;101151.28;5052647;28;20040;-81
2021/06/23 03:25:48;;;;;;;6.28;5.40;;;;;;;10.56;100.00;101153.03;5048781;28;20037;-81
2021/06/23 03:28:15;;;;;;;6.22;5.63;;;;;;;10.59;100.00;101156.50;5049601;28;20049;-80
2021/06/23 03:30:42;;;;;;;6.65;5.10;;;;;;;10.62;100.00;101166.19;5039105;28;20094;-80
2021/06/23 03:33:08;;;;;;;7.25;5.30;;;;;;;10.66;100.00;101165.22;5070558;28;20049;-80
2021/06/23 03:35:35;;;;;;;6.03;4.80;;;;;;;10.68;100.00;101169.63;5037360;28;20048;-80
2021/06/23 03:38:02;;;;;;;21.00;6.65;;;;;;;10.73;100.00;101180.13;5061696;28;20041;-80
2021/06/23 03:40:29;;;;;;;6.13;5.38;;;;;;;10.75;100.00;101177.44;5044771;28;20086;-81
2021/06/23 03:42:56;;;;;;;5.72;5.20;;;;;;;10.79;100.00;101181.81;5019139;28;20171;-80
2021/06/23 03:45:41;;;;;;;7.88;5.07;;;;;;;10.84;100.00;101188.78;5059035;28;20044;-79
2021/06/23 03:48:07;;;;;;;7.95;6.03;;;;;;;10.87;100.00;101190.53;5059218;28;20045;-81
2021/06/23 03:50:34;;;;;;;7.10;4.97;;;;;;;10.89;100.00;101197.53;5057597;28;20044;-80
2021/06/23 03:53:02;;;;;;;6.38;5.78;;;;;;;10.90;100.00;101180.78;5060054;28;20382;-81
2021/06/23 03:55:29;;;;;;;6.20;5.25;;;;;;;10.93;100.00;101170.19;5059506;28;20122;-80
2021/06/23 03:57:56;;;;;;;6.13;4.70;;;;;;;10.90;100.00;101191.34;5041568;28;20390;-80
2021/06/23 04:00:25;;;;;;;6.60;4.63;;;;;;;10.90;100.00;101201.06;5056880;28;20414;-80
2021/06/23 04:02:53;;;;;;;5.15;4.65;;;;;;;10.95;100.00;101193.94;5034605;28;20041;-80
2021/06/23 04:05:20;;;;;;;5.20;4.70;;;;;;;10.96;100.00;101199.22;5041715;28;20413;-80
2021/06/23 04:07:47;;;;;;;5.00;4.50;;;;;;;10.95;100.00;101197.47;5045366;28;20037;-81
2021/06/23 04:10:15;;;;;;;5.20;4.68;;;;;;;10.96;100.00;101214.19;5043196;28;20073;-80
2021/06/23 04:12:42;;;;;;;6.18;4.85;;;;;;;10.98;100.00;101205.34;5046923;28;20052;-81
2021/06/23 04:15:12;;;;;;;8.52;5.22;;;;;;;10.95;100.00;101210.69;5051644;28;20057;-80
2021/06/23 04:17:39;;;;;;;5.35;4.80;;;;;;;10.96;100.00;101219.47;5040609;28;20041;-80
2021/06/23 04:20:07;;;;;;;5.78;5.18;;;;;;;10.97;100.00;101218.59;5055966;28;20065;-80
2021/06/23 04:22:34;;;;;;;5.72;4.93;;;;;;;10.97;100.00;101221.22;5033504;28;20655;-79
2021/06/23 04:25:01;;;;;;;5.90;4.88;;;;;;;10.96;100.00;101212.41;5056664;28;20098;-80
2021/06/23 04:27:27;;;;;;;6.43;5.05;;;;;;;10.95;100.00;101215.09;5035608;28;20107;-80
2021/06/23 04:29:54;;;;;;;6.68;4.47;;;;;;;10.92;100.00;101220.41;5074573;28;20082;-81
2021/06/23 04:32:21;;;;;;;5.10;4.63;;;;;;;10.95;100.00;101220.38;5063089;28;20045;-81
2021/06/23 04:34:48;;;;;;;5.95;4.85;;;;;;;11.02;100.00;101222.06;5041461;28;20044;-80
2021/06/23 04:37:14;;;;;;;5.72;5.03;;;;;;;11.05;100.00;101222.00;5050525;28;20444;-81
2021/06/23 04:39:41;;;;;;;8.68;5.63;;;;;;;11.12;100.00;101218.38;5073955;28;20042;-81
2021/06/23 04:42:08;;;;;;;5.68;5.07;;;;;;;11.27;100.00;101212.88;5068940;28;20037;-81
2021/06/23 04:44:34;;;;;;;6.68;5.57;;;;;;;11.29;100.00;101220.78;5069803;28;20052;-81
2021/06/23 04:47:01;;;;;;;7.38;4.68;;;;;;;11.40;100.00;101215.34;5054174;28;20041;-80
2021/06/23 04:49:28;;;;;;;5.57;4.75;;;;;;;11.49;100.00;101204.59;5038535;28;20055;-80
2021/06/23 04:51:54;;;;;;;5.03;4.53;;;;;;;11.57;100.00;101206.22;5043513;28;20072;-80
2021/06/23 04:54:21;;;;;;;5.93;5.05;;;;;;;11.60;100.00;101205.31;5055899;28;20041;-80
2021/06/23 04:56:48;;;;;;;6.10;5.38;;;;;;;11.75;100.00;101205.06;5056462;28;20098;-80
2021/06/23 04:59:14;;;;;;;5.38;4.88;;;;;;;11.92;100.00;101218.03;5023447;28;20665;-79
2021/06/23 05:01:41;;;;;;;6.32;5.30;;;;;;;12.06;100.00;101225.75;5059124;28;20052;-80
2021/06/23 05:04:08;;;;;;;6.57;5.10;;;;;;;12.21;100.00;101230.78;5066499;28;20104;-80
2021/06/23 05:06:35;;;;;;;6.45;5.15;;;;;;;12.34;100.00;101232.28;5059588;28;20049;-80
2021/06/23 05:09:05;;;;;;;6.43;5.00;;;;;;;12.49;100.00;101232.91;5056640;28;20045;-80
2021/06/23 05:11:33;;;;;;;5.20;4.70;;;;;;;12.66;100.00;101234.34;5050979;28;20044;-80
2021/06/23 05:14:05;;;;;;;5.32;4.80;;;;;;;12.90;100.00;101237.41;5046159;28;20052;-79
2021/06/23 05:16:34;;;;;;;6.55;4.53;;;;;;;13.16;100.00;101237.72;5047140;28;20143;-79
2021/06/23 05:19:01;;;;;;;6.05;4.60;;;;;;;13.79;100.00;101245.13;5050214;28;20036;-81
2021/06/23 05:21:27;;;;;;;5.22;4.43;;;;;;;14.81;96.71;101240.72;5032135;28;20066;-80
2021/06/23 05:23:59;;;;;;;4.95;4.07;;;;;;;15.24;92.78;101226.13;5048658;28;20128;-81
2021/06/23 05:26:26;;;;;;;4.68;4.07;;;;;;;15.67;88.68;101229.19;5062676;28;20036;-79
2021/06/23 05:28:52;;;;;;;5.13;3.78;;;;;;;15.44;90.75;101239.69;5062850;28;21708;-81
2021/06/23 05:31:20;;;;;;;6.53;4.53;;;;;;;15.41;88.84;101231.78;5054264;28;20048;-79
2021/06/23 05:33:47;;;;;;;6.10;3.50;;;;;;;15.36;89.79;101250.56;5031681;28;20428;-80
2021/06/23 05:36:13;;;;;;;6.45;4.60;;;;;;;15.25;92.23;101244.72;5059057;28;20114;-80
2021/06/23 05:38:40;;;;;;;4.50;4.07;;;;;;;15.15;93.87;101254.75;5067785;28;20106;-80
2021/06/23 05:41:07;;;;;;;4.78;3.70;;;;;;;15.22;95.24;101255.47;5038421;28;21772;-80
2021/06/23 05:43:33;;;;;;;6.50;4.20;;;;;;;15.45;93.85;101238.75;5074440;28;20040;-80
2021/06/23 05:46:00;;;;;;;5.00;3.22;;;;;;;16.19;89.44;101243.44;5041332;28;20052;-80
2021/06/23 05:48:27;;;;;;;7.93;3.72;;;;;;;17.64;79.12;101243.34;5064301;28;20041;-82
2021/06/23 05:50:53;;;;;;;6.65;3.22;;;;;;;18.77;72.14;101248.41;5051715;28;20563;-81
2021/06/23 05:53:20;;;;;;;5.85;3.10;;;;;;;19.34;66.62;101238.63;5071674;28;20064;-80
2021/06/23 05:55:47;;;;;;;7.32;3.00;;;;;;;20.18;66.02;101235.34;5037636;28;20048;-81
2021/06/23 05:58:13;;;;;;;9.15;2.80;;;;;;;20.06;64.21;101229.75;5023020;28;20040;-82
2021/06/23 06:00:40;;;;;;;6.32;2.85;;;;;;;19.93;63.40;101235.75;5062356;28;20613;-81
2021/06/23 06:03:07;;;;;;;7.18;3.00;;;;;;;19.93;62.52;101245.59;5051270;28;20584;-80
2021/06/23 06:05:34;;;;;;;6.45;2.90;;;;;;;19.67;64.53;101253.13;5045402;28;21050;-81
2021/06/23 06:08:01;;;;;;;8.35;3.50;;;;;;;19.46;63.50;101251.44;5050297;28;20540;-80
2021/06/23 06:10:28;;;;;;;9.23;3.35;;;;;;;18.98;65.83;101255.47;5070061;28;20604;-80
2021/06/23 06:13:01;;;;;;;10.45;3.80;;;;;;;18.33;68.22;101253.00;5050844;28;20036;-81
2021/06/23 06:15:28;;;;;;;17.83;4.22;;;;;;;18.04;68.97;101251.59;5031977;28;20063;-81
2021/06/23 06:18:02;;;;;;;5.65;3.13;;;;;;;18.01;69.69;101257.94;5055711;28;20059;-81
2021/06/23 06:20:29;;;;;;;7.53;4.00;;;;;;;17.89;70.66;101264.66;5054935;28;20045;-81
2021/06/23 06:22:56;;;;;;;8.73;4.13;;;;;;;17.61;71.48;101277.38;5039626;28;20095;-80
2021/06/23 06:25:23;;;;;;;12.82;4.88;;;;;;;17.48;73.19;101281.44;5053542;28;20158;-81
2021/06/23 06:27:49;;;;;;;10.50;3.88;;;;;;;17.44;72.11;101272.69;5053281;28;20044;-81
2021/06/23 06:30:16;;;;;;;5.75;3.15;;;;;;;17.48;71.69;101282.31;5047647;28;20053;-81
2021/06/23 06:32:43;;;;;;;6.90;3.00;;;;;;;17.51;73.82;101286.69;5051349;28;20083;-81
2021/06/23 06:35:10;;;;;;;9.50;3.72;;;;;;;17.59;73.22;101285.44;5051615;28;20049;-80
2021/06/23 06:37:37;;;;;;;14.65;4.15;;;;;;;17.60;73.08;101279.16;5040484;28;20040;-81
2021/06/23 06:40:04;;;;;;;6.60;3.60;;;;;;;17.80;72.15;101289.06;5070702;28;20086;-81
2021/06/23 06:42:30;;;;;;;7.40;3.55;;;;;;;17.79;73.31;101287.34;5046317;28;20048;-81
2021/06/23 06:44:57;;;;;;;8.10;3.67;;;;;;;17.94;72.02;101291.19;5071551;28;20047;-81
2021/06/23 06:47:24;;;;;;;5.18;3.20;;;;;;;18.02;73.53;101294.44;5068381;28;20508;-81
2021/06/23 06:49:50;;;;;;;4.32;2.97;;;;;;;18.05;73.11;101301.44;5070295;28;20041;-81
2021/06/23 06:52:17;;;;;;;6.78;3.35;;;;;;;18.15;72.65;101298.31;5038069;28;20409;-81
2021/06/23 06:54:44;;;;;;;6.10;3.55;;;;;;;18.26;71.15;101303.25;5038468;28;20067;-81
2021/06/23 06:57:10;;;;;;;6.32;2.42;;;;;;;18.29;70.69;101295.06;5051147;28;20522;-81
2021/06/23 06:59:37;;;;;;;5.50;2.83;;;;;;;18.37;70.47;101297.44;5051757;28;20069;-80
2021/06/23 07:02:04;;;;;;;7.97;3.10;;;;;;;18.48;70.94;101297.81;5032989;28;20602;-81
2021/06/23 07:04:31;;;;;;;5.63;3.50;;;;;;;18.47;70.04;101302.31;5053907;28;20040;-81
2021/06/23 07:06:57;;;;;;;6.10;3.22;;;;;;;18.48;69.36;101304.03;5054030;28;20041;-81
2021/06/23 07:09:24;;;;;;;4.90;2.70;;;;;;;18.52;68.92;101302.13;5053328;28;20076;-82
2021/06/23 07:11:51;;;;;;;8.40;3.88;;;;;;;18.59;69.50;101295.56;5053686;28;20191;-81
2021/06/23 07:14:21;;;;;;;5.60;3.30;;;;;;;18.57;66.72;101298.28;5057297;28;20131;-81
2021/06/23 07:16:48;;;;;;;6.40;3.92;;;;;;;18.43;66.67;101299.84;5056076;28;20433;-81
2021/06/23 07:19:15;;;;;;;5.03;2.83;;;;;;;18.27;69.93;101300.50;5052169;28;20044;-81
2021/06/23 07:21:42;;;;;;;7.45;3.22;;;;;;;18.28;68.23;101290.66;5052398;28;20037;-81
2021/06/23 07:24:09;;;;;;;8.43;3.45;;;;;;;18.36;67.04;101309.94;5033684;28;20079;-81
2021/06/23 07:26:36;;;;;;;5.55;3.05;;;;;;;18.49;69.74;101307.59;5032205;28;20106;-81
2021/06/23 07:29:06;;;;;;;6.05;3.20;;;;;;;18.72;70.07;101303.94;5060076;28;20051;-81
2021/06/23 07:36:40;;;;;;;6.80;3.65;;;;;;;19.28;67.32;101300.53;5048962;28;20540;-81
2021/06/23 07:39:09;;;;;;;6.63;3.10;;;;;;;19.49;65.01;101301.31;5059741;28;20045;-81
2021/06/23 07:41:40;;;;;;;5.45;3.33;;;;;;;19.56;65.08;101295.63;5052244;28;20048;-82
2021/06/23 07:44:09;;;;;;;6.47;2.95;;;;;;;19.79;63.18;101285.63;5042603;28;20049;-81
2021/06/23 07:46:39;;;;;;;5.22;3.25;;;;;;;20.23;65.30;101286.94;5044732;28;20521;-81
2021/06/23 07:49:12;;;;;;;4.88;3.10;;;;;;;20.60;61.94;101282.44;5050985;28;20047;-81
2021/06/23 07:54:29;;;;;;;7.28;3.80;;;;;;;20.87;57.75;101276.53;5052401;28;20041;-81
2021/06/23 08:10:46;;;;;;;7.00;3.47;;;;;;;20.53;64.08;101289.06;5057284;28;20041;-82
2021/06/23 08:13:14;;;;;;;8.88;3.60;;;;;;;20.85;61.03;101295.44;5073218;28;20049;-81
2021/06/23 08:15:42;;;;;;;8.70;3.50;;;;;;;21.13;60.50;101300.19;5032985;28;20095;-82
2021/06/23 08:18:09;;;;;;;7.85;3.20;;;;;;;21.55;59.76;101293.41;5056937;28;20139;-82
2021/06/23 08:20:37;;;;;;;11.30;3.20;;;;;;;21.55;56.57;101296.97;5071777;28;20074;-81
2021/06/23 08:23:04;;;;;;;4.95;2.92;;;;;;;;;;5073484;28;20037;-82
2021/06/23 08:25:31;;;;;;;7.25;3.08;;;;;;;21.20;53.39;101287.28;5071618;28;20102;-82
2021/06/23 08:27:58;;;;;;;5.63;2.85;;;;;;;21.74;54.63;101282.47;5056975;28;20040;-82
2021/06/23 08:30:24;;;;;;;7.43;3.72;;;;;;;21.92;52.50;101284.97;5054322;28;20052;-81
2021/06/23 08:32:51;;;;;;;7.25;3.10;;;;;;;21.31;53.90;101290.25;5036241;28;20037;-81
2021/06/23 08:35:18;;;;;;;7.45;2.65;;;;;;;21.62;56.09;101292.13;5055352;28;20090;-83
2021/06/23 08:37:45;;;;;;;3.50;2.67;;;;;;;21.60;55.00;101291.31;5057117;28;20041;-82
2021/06/23 08:40:14;;;;;;;4.65;3.30;;;;;;;21.74;55.25;101296.78;5034997;28;20037;-82
2021/06/23 08:42:41;;;;;;;6.47;3.05;;;;;;;21.74;52.38;101291.41;5038870;28;20037;-82
2021/06/23 08:45:10;;;;;;;6.80;3.22;;;;;;;21.90;52.91;101294.09;5037661;28;20040;-80
2021/06/23 08:47:45;;;;;;;5.60;3.17;;;;;;;22.03;51.80;101294.22;5052628;28;20052;-82
2021/06/23 08:50:15;;;;;;;5.45;3.40;;;;;;;22.01;50.60;101290.78;5034979;28;20099;-82
2021/06/23 08:52:42;;;;;;;4.75;3.20;;;;;;;21.99;51.19;101292.69;5043454;28;20045;-83
2021/06/23 08:55:09;;;;;;;4.90;2.97;;;;;;;21.86;52.91;101289.81;5052233;28;20138;-82
2021/06/23 08:57:36;;;;;;;7.72;3.40;;;;;;;21.79;53.45;101299.22;5051812;28;20118;-81
2021/06/23 09:00:06;;;;;;;7.75;3.30;;;;;;;21.73;52.63;101302.25;5053565;28;20047;-82
2021/06/23 09:02:34;;;;;;;7.63;3.63;;;;;;;21.24;53.12;101308.50;5066157;28;20062;-81
2021/06/23 09:05:09;;;;;;;5.47;3.00;;;;;;;21.36;56.04;101307.03;5055358;28;20523;-81
2021/06/23 09:07:42;;;;;;;5.35;3.28;;;;;;;21.35;54.83;101303.44;5049693;28;20090;-83
2021/06/23 09:10:32;;;;;;;5.72;3.17;;;;;;;21.03;52.77;101307.00;5050725;28;20072;-83
2021/06/23 09:13:08;;;;;;;6.95;3.33;;;;;;;21.05;52.38;101302.41;5065165;28;20098;-83
2021/06/23 09:15:59;;;;;;;8.70;4.10;;;;;;;20.47;55.43;101308.16;5058252;28;20082;-83
2021/06/23 09:18:40;;;;;;;6.95;3.08;;;;;;;20.83;55.24;101308.03;5035447;28;20105;-82
2021/06/23 09:21:19;;;;;;;6.97;3.47;;;;;;;20.97;54.75;101312.69;5050554;28;20045;-82
2021/06/23 09:23:50;;;;;;;15.65;4.22;;;;;;;21.09;54.78;101315.56;5028976;28;20467;-83
2021/06/23 09:26:33;;;;;;;5.30;3.30;;;;;;;21.10;54.27;101316.44;5044634;28;20890;-84
2021/06/23 09:29:17;;;;;;;7.45;4.00;;;;;;;20.99;53.87;101308.09;5031549;28;20041;-82
2021/06/23 09:31:59;;;;;;;4.97;3.20;;;;;;;20.99;53.70;101310.78;5052597;28;20039;-82
2021/06/23 09:34:34;;;;;;;7.30;4.00;;;;;;;20.99;53.82;101305.41;5052975;28;20046;-84
2021/06/23 09:37:02;;;;;;;7.47;3.88;;;;;;;20.98;54.00;101306.38;5061160;28;20759;-82
2021/06/23 09:39:30;;;;;;;7.63;4.03;;;;;;;21.08;54.61;101302.22;5036483;28;20502;-83
2021/06/23 09:41:57;;;;;;;8.45;3.55;;;;;;;21.17;54.07;101308.94;5054524;28;20048;-83
2021/06/23 09:44:26;;;;;;;7.95;4.20;;;;;;;20.96;54.17;101298.41;5039404;28;20040;-83
2021/06/23 09:46:54;;;;;;;6.82;3.47;;;;;;;21.01;56.36;101308.88;5047435;28;20040;-82
2021/06/23 09:49:27;;;;;;;7.28;4.25;;;;;;;21.11;54.90;101306.59;5046735;28;20116;-82
2021/06/23 09:51:56;;;;;;;5.95;3.70;;;;;;;21.16;56.64;101304.50;5038737;28;20464;-82
2021/06/23 09:54:28;;;;;;;4.75;3.25;;;;;;;21.21;55.47;101306.00;5056617;28;20044;-82
2021/06/23 09:57:02;;;;;;;6.00;3.92;;;;;;;20.97;57.21;101310.88;5048346;28;20561;-82
2021/06/23 09:59:40;;;;;;;7.22;4.32;;;;;;;21.24;56.67;101313.00;5052378;28;20157;-82
2021/06/23 10:02:29;;;;;;;6.65;3.88;;;;;;;21.44;57.38;101320.00;5043386;28;20079;-82
2021/06/23 10:04:58;;;;;;;8.77;4.72;;;;;;;21.44;54.38;101325.38;5062814;28;20063;-83
2021/06/23 10:07:45;;;;;;;6.25;4.00;;;;;;;21.76;54.85;101327.16;5046461;28;20088;-82
2021/06/23 10:10:17;;;;;;;5.88;4.30;;;;;;;21.46;53.41;101326.19;5042942;28;20041;-82
2021/06/23 10:12:52;;;;;;;5.75;3.75;;;;;;;21.99;52.49;101320.47;5038898;28;20082;-82
2021/06/23 10:15:20;;;;;;;8.57;4.28;;;;;;;22.39;52.67;101329.81;5062184;28;20824;-82
2021/06/23 10:17:48;;;;;;;6.63;4.32;;;;;;;22.83;51.90;101325.41;5053056;28;20045;-81
2021/06/23 10:20:16;;;;;;;8.80;5.07;;;;;;;23.06;49.65;101318.63;5048550;28;20041;-80
2021/06/23 10:22:44;;;;;;;5.95;4.32;;;;;;;23.09;51.96;101310.34;5037584;28;20769;-82
2021/06/23 10:25:13;;;;;;;7.80;3.85;;;;;;;23.19;51.09;101316.88;5038703;28;20041;-81
2021/06/23 10:27:49;;;;;;;6.65;4.18;;;;;;;23.17;50.44;101321.50;5066070;28;20041;-82
2021/06/23 10:30:17;;;;;;;7.85;4.70;;;;;;;22.87;47.38;101318.88;5052721;28;20040;-81
2021/06/23 10:32:44;;;;;;;5.10;3.58;;;;;;;22.66;50.51;101323.72;5061377;28;20052;-81
2021/06/23 10:35:12;;;;;;;6.82;3.95;;;;;;;22.44;51.11;101322.31;5046723;28;20056;-81
2021/06/23 10:37:39;;;;;;;8.05;5.05;;;;;;;22.29;50.67;101315.16;5035770;28;20128;-81
2021/06/23 10:40:08;;;;;;;8.90;3.92;;;;;;;22.12;51.83;101321.53;5038133;28;20049;-81
2021/06/23 10:42:34;;;;;;;6.25;4.03;;;;;;;21.97;51.12;101324.22;5066404;28;20040;-81
2021/06/23 10:45:02;;;;;;;6.75;4.65;;;;;;;21.80;51.25;101325.16;5051757;28;20090;-81
2021/06/23 10:47:34;;;;;;;8.65;4.22;;;;;;;21.75;51.31;101329.94;5055748;28;20047;-81
2021/06/23 10:50:02;;;;;;;6.97;4.17;;;;;;;21.60;52.20;101331.66;5044820;28;20053;-79
2021/06/23 10:52:30;;;;;;;5.30;4.10;;;;;;;21.68;54.05;101337.47;5044091;28;20032;-81
2021/06/23 10:55:03;;;;;;;6.15;4.05;;;;;;;21.73;53.50;101343.47;5055501;28;20041;-81
2021/06/23 10:57:40;;;;;;;7.50;4.20;;;;;;;21.92;54.00;101341.47;5047430;28;20040;-81
2021/06/23 11:00:10;;;;;;;6.65;3.95;;;;;;;22.11;50.58;101353.91;5034363;28;20049;-81
2021/06/23 11:02:40;;;;;;;6.88;4.63;;;;;;;22.12;51.92;101340.38;5069712;28;20835;-81
2021/06/23 11:05:08;;;;;;;5.72;3.78;;;;;;;22.30;51.65;101349.19;5053087;28;20135;-82
2021/06/23 11:07:44;;;;;;;6.47;4.07;;;;;;;22.51;51.88;101336.28;5044694;28;20449;-83
2021/06/23 11:10:10;;;;;;;7.75;3.95;;;;;;;22.58;51.78;101331.41;5049729;28;20045;-81
2021/06/23 11:12:47;;;;;;;8.40;4.75;;;;;;;22.42;49.88;101329.63;5044971;28;20049;-82
2021/06/23 11:15:15;;;;;;;9.18;4.25;;;;;;;22.44;50.26;101329.53;5053571;28;20056;-81
2021/06/23 11:17:42;;;;;;;6.25;3.60;;;;;;;22.38;50.15;101330.78;5053448;28;20053;-81
2021/06/23 11:20:18;;;;;;;5.43;3.85;;;;;;;22.36;50.67;101324.59;5047795;28;20045;-82
2021/06/23 11:22:46;;;;;;;6.50;3.97;;;;;;;22.20;50.93;101337.25;5068416;28;20041;-82
2021/06/23 11:25:33;;;;;;;7.10;4.07;;;;;;;21.99;51.37;101333.06;5050235;28;20044;-81
2021/06/23 11:28:09;;;;;;;4.80;3.63;;;;;;;21.92;51.21;101328.00;5053460;28;20045;-82
2021/06/23 11:30:37;;;;;;;6.75;4.07;;;;;;;21.92;53.71;101328.00;5062161;28;20837;-80
2021/06/23 11:33:28;;;;;;;10.80;4.00;;;;;;;22.02;53.16;101344.50;5060645;28;20087;-82
2021/06/23 11:36:17;;;;;;;7.82;3.95;;;;;;;22.06;53.32;101345.19;5065262;28;20040;-80
2021/06/23 11:38:46;;;;;;;9.15;3.58;;;;;;;21.99;52.44;101349.19;5034218;28;20166;-81
2021/06/23 11:41:15;;;;;;;6.43;3.80;;;;;;;21.95;50.41;101342.28;5041043;28;20033;-81
2021/06/23 11:43:45;;;;;;;4.43;3.38;;;;;;;22.13;52.53;101350.19;5053229;28;20098;-81
2021/06/23 11:46:12;;;;;;;6.00;3.45;;;;;;;22.24;53.34;101349.56;5045558;28;20044;-81
2021/06/23 11:48:41;;;;;;;8.15;4.18;;;;;;;22.28;52.83;101347.53;5046576;28;20073;-82
2021/06/23 11:51:10;;;;;;;7.60;4.82;;;;;;;21.99;51.24;101349.19;5049412;28;20075;-81
2021/06/23 11:53:38;;;;;;;9.43;4.88;;;;;;;22.03;52.77;101358.81;5038012;28;20045;-82